sensor_id;sensor_type;location;lat;lon;timestamp;P1;durP1;ratioP1;P2;durP2;ratioP2
19593;SDS011;9944;48.240;16.478;2023-11-22T00:03:37;5.63;;;4.07;;
19593;SDS011;9944;48.240;16.478;2023-11-22T00:07:40;6.85;;;4.43;;
19593;SDS011;9944;48.240;16.478;2023-11-22T00:11:45;4.95;;;3.53;;
19593;SDS011;9944;48.240;16.478;2023-11-22T00:15:48;8.18;;;4.70;;
19593;SDS011;9944;48.240;16.478;2023-11-22T00:19:52;7.53;;;5.07;;
19593;SDS011;9944;48.240;16.478;2023-11-22T00:23:55;6.93;;;4.63;;
19593;SDS011;9944;48.240;16.478;2023-11-22T00:28:00;6.82;;;4.30;;
19593;SDS011;9944;48.240;16.478;2023-11-22T00:32:04;7.55;;;4.70;;
19593;SDS011;9944;48.240;16.478;2023-11-22T00:36:11;7.72;;;5.03;;
19593;SDS011;9944;48.240;16.478;2023-11-22T00:40:14;7.95;;;4.38;;
19593;SDS011;9944;48.240;16.478;2023-11-22T00:44:19;8.10;;;5.03;;
19593;SDS011;9944;48.240;16.478;2023-11-22T00:48:23;8.10;;;4.63;;
19593;SDS011;9944;48.240;16.478;2023-11-22T00:52:26;7.35;;;5.03;;
19593;SDS011;9944;48.240;16.478;2023-11-22T00:56:30;8.02;;;4.60;;
19593;SDS011;9944;48.240;16.478;2023-11-22T01:00:35;7.70;;;5.10;;
19593;SDS011;9944;48.240;16.478;2023-11-22T01:04:38;8.45;;;4.80;;
19593;SDS011;9944;48.240;16.478;2023-11-22T01:08:42;9.30;;;4.88;;
19593;SDS011;9944;48.240;16.478;2023-11-22T01:12:45;7.80;;;4.40;;
19593;SDS011;9944;48.240;16.478;2023-11-22T01:16:51;6.60;;;4.05;;
19593;SDS011;9944;48.240;16.478;2023-11-22T01:20:54;6.00;;;4.03;;
19593;SDS011;9944;48.240;16.478;2023-11-22T01:24:58;4.53;;;3.50;;
19593;SDS011;9944;48.240;16.478;2023-11-22T01:29:02;4.75;;;3.08;;
19593;SDS011;9944;48.240;16.478;2023-11-22T01:33:07;4.80;;;3.05;;
19593;SDS011;9944;48.240;16.478;2023-11-22T01:37:10;4.50;;;3.00;;
19593;SDS011;9944;48.240;16.478;2023-11-22T01:41:14;5.22;;;3.10;;
19593;SDS011;9944;48.240;16.478;2023-11-22T01:45:17;3.47;;;2.72;;
19593;SDS011;9944;48.240;16.478;2023-11-22T01:49:23;5.22;;;3.08;;
19593;SDS011;9944;48.240;16.478;2023-11-22T01:53:26;5.38;;;3.47;;
19593;SDS011;9944;48.240;16.478;2023-11-22T01:57:30;4.18;;;3.15;;
19593;SDS011;9944;48.240;16.478;2023-11-22T02:01:37;4.78;;;3.25;;
19593;SDS011;9944;48.240;16.478;2023-11-22T02:05:43;6.55;;;3.50;;
19593;SDS011;9944;48.240;16.478;2023-11-22T02:09:47;5.93;;;3.42;;
19593;SDS011;9944;48.240;16.478;2023-11-22T02:13:51;4.20;;;3.00;;
19593;SDS011;9944;48.240;16.478;2023-11-22T02:17:55;6.55;;;3.15;;
19593;SDS011;9944;48.240;16.478;2023-11-22T02:22:13;5.40;;;3.03;;
19593;SDS011;9944;48.240;16.478;2023-11-22T02:26:19;4.25;;;2.92;;
19593;SDS011;9944;48.240;16.478;2023-11-22T02:30:23;3.67;;;2.50;;
19593;SDS011;9944;48.240;16.478;2023-11-22T02:34:27;4.70;;;2.92;;
19593;SDS011;9944;48.240;16.478;2023-11-22T02:38:44;4.00;;;2.85;;
19593;SDS011;9944;48.240;16.478;2023-11-22T02:42:50;3.90;;;2.90;;
19593;SDS011;9944;48.240;16.478;2023-11-22T02:46:55;3.53;;;2.80;;
19593;SDS011;9944;48.240;16.478;2023-11-22T02:50:59;3.97;;;2.67;;
19593;SDS011;9944;48.240;16.478;2023-11-22T02:55:04;3.35;;;2.63;;
19593;SDS011;9944;48.240;16.478;2023-11-22T02:59:10;3.80;;;2.90;;
19593;SDS011;9944;48.240;16.478;2023-11-22T03:03:15;3.17;;;2.53;;
19593;SDS011;9944;48.240;16.478;2023-11-22T03:07:19;4.28;;;2.55;;
19593;SDS011;9944;48.240;16.478;2023-11-22T03:11:23;3.45;;;2.80;;
19593;SDS011;9944;48.240;16.478;2023-11-22T03:15:27;4.30;;;3.03;;
19593;SDS011;9944;48.240;16.478;2023-11-22T03:19:33;5.75;;;2.70;;
19593;SDS011;9944;48.240;16.478;2023-11-22T03:23:36;5.07;;;3.63;;
19593;SDS011;9944;48.240;16.478;2023-11-22T03:27:39;3.90;;;2.75;;
19593;SDS011;9944;48.240;16.478;2023-11-22T03:31:44;3.42;;;3.08;;
19593;SDS011;9944;48.240;16.478;2023-11-22T03:35:48;4.00;;;3.10;;
19593;SDS011;9944;48.240;16.478;2023-11-22T03:39:51;4.57;;;3.05;;
19593;SDS011;9944;48.240;16.478;2023-11-22T03:43:55;4.05;;;3.35;;
19593;SDS011;9944;48.240;16.478;2023-11-22T03:48:01;3.80;;;2.90;;
19593;SDS011;9944;48.240;16.478;2023-11-22T03:52:05;4.70;;;3.00;;
19593;SDS011;9944;48.240;16.478;2023-11-22T03:56:10;5.00;;;3.13;;
19593;SDS011;9944;48.240;16.478;2023-11-22T04:00:14;3.60;;;2.45;;
19593;SDS011;9944;48.240;16.478;2023-11-22T04:04:19;5.07;;;2.78;;
19593;SDS011;9944;48.240;16.478;2023-11-22T04:08:23;3.22;;;2.55;;
19593;SDS011;9944;48.240;16.478;2023-11-22T04:12:26;4.55;;;2.50;;
19593;SDS011;9944;48.240;16.478;2023-11-22T04:16:30;3.65;;;2.25;;
19593;SDS011;9944;48.240;16.478;2023-11-22T04:20:35;3.75;;;2.30;;
19593;SDS011;9944;48.240;16.478;2023-11-22T04:24:38;4.68;;;2.83;;
19593;SDS011;9944;48.240;16.478;2023-11-22T04:28:41;4.03;;;2.70;;
19593;SDS011;9944;48.240;16.478;2023-11-22T04:32:45;3.90;;;3.05;;
19593;SDS011;9944;48.240;16.478;2023-11-22T04:36:50;3.65;;;2.78;;
19593;SDS011;9944;48.240;16.478;2023-11-22T04:40:53;5.65;;;2.70;;
19593;SDS011;9944;48.240;16.478;2023-11-22T04:44:56;3.90;;;2.75;;
19593;SDS011;9944;48.240;16.478;2023-11-22T04:49:00;3.25;;;2.55;;
19593;SDS011;9944;48.240;16.478;2023-11-22T04:53:05;3.78;;;2.78;;
19593;SDS011;9944;48.240;16.478;2023-11-22T04:57:08;4.53;;;2.88;;
19593;SDS011;9944;48.240;16.478;2023-11-22T05:01:12;2.92;;;2.22;;
19593;SDS011;9944;48.240;16.478;2023-11-22T05:05:21;4.10;;;2.40;;
19593;SDS011;9944;48.240;16.478;2023-11-22T05:09:25;3.08;;;1.95;;
19593;SDS011;9944;48.240;16.478;2023-11-22T05:13:29;3.80;;;2.50;;
19593;SDS011;9944;48.240;16.478;2023-11-22T05:17:32;2.72;;;2.10;;
19593;SDS011;9944;48.240;16.478;2023-11-22T05:21:36;2.88;;;2.20;;
19593;SDS011;9944;48.240;16.478;2023-11-22T05:25:40;3.35;;;2.00;;
19593;SDS011;9944;48.240;16.478;2023-11-22T05:29:44;2.78;;;1.85;;
19593;SDS011;9944;48.240;16.478;2023-11-22T05:33:55;2.45;;;1.80;;
19593;SDS011;9944;48.240;16.478;2023-11-22T05:37:59;2.97;;;2.03;;
19593;SDS011;9944;48.240;16.478;2023-11-22T05:42:05;2.95;;;1.80;;
19593;SDS011;9944;48.240;16.478;2023-11-22T05:46:09;2.65;;;1.92;;
19593;SDS011;9944;48.240;16.478;2023-11-22T05:50:14;2.38;;;1.73;;
19593;SDS011;9944;48.240;16.478;2023-11-22T05:54:18;2.53;;;1.55;;
19593;SDS011;9944;48.240;16.478;2023-11-22T05:58:22;3.75;;;2.17;;
19593;SDS011;9944;48.240;16.478;2023-11-22T06:02:26;2.50;;;1.88;;
19593;SDS011;9944;48.240;16.478;2023-11-22T06:06:29;3.17;;;2.17;;
19593;SDS011;9944;48.240;16.478;2023-11-22T06:10:33;5.55;;;2.60;;
19593;SDS011;9944;48.240;16.478;2023-11-22T06:14:37;3.70;;;2.67;;
19593;SDS011;9944;48.240;16.478;2023-11-22T06:18:41;3.17;;;2.50;;
19593;SDS011;9944;48.240;16.478;2023-11-22T06:22:45;3.78;;;2.58;;
19593;SDS011;9944;48.240;16.478;2023-11-22T06:26:49;5.05;;;2.83;;
19593;SDS011;9944;48.240;16.478;2023-11-22T06:30:53;4.30;;;2.63;;
19593;SDS011;9944;48.240;16.478;2023-11-22T06:34:57;4.25;;;2.85;;
19593;SDS011;9944;48.240;16.478;2023-11-22T06:39:00;5.57;;;3.00;;
19593;SDS011;9944;48.240;16.478;2023-11-22T06:43:06;3.63;;;2.67;;
19593;SDS011;9944;48.240;16.478;2023-11-22T06:47:10;2.97;;;2.28;;
19593;SDS011;9944;48.240;16.478;2023-11-22T06:51:14;5.13;;;3.15;;
19593;SDS011;9944;48.240;16.478;2023-11-22T06:55:17;3.92;;;2.65;;
19593;SDS011;9944;48.240;16.478;2023-11-22T06:59:21;4.50;;;2.80;;
19593;SDS011;9944;48.240;16.478;2023-11-22T07:03:26;6.20;;;2.72;;
19593;SDS011;9944;48.240;16.478;2023-11-22T07:07:29;4.70;;;2.90;;
19593;SDS011;9944;48.240;16.478;2023-11-22T07:11:33;4.22;;;2.72;;
19593;SDS011;9944;48.240;16.478;2023-11-22T07:15:36;5.28;;;2.78;;
19593;SDS011;9944;48.240;16.478;2023-11-22T07:19:40;5.40;;;3.38;;
19593;SDS011;9944;48.240;16.478;2023-11-22T07:23:48;3.65;;;3.08;;
19593;SDS011;9944;48.240;16.478;2023-11-22T07:27:54;4.85;;;3.05;;
19593;SDS011;9944;48.240;16.478;2023-11-22T07:31:57;3.38;;;2.60;;
19593;SDS011;9944;48.240;16.478;2023-11-22T07:36:02;3.88;;;2.80;;
19593;SDS011;9944;48.240;16.478;2023-11-22T07:40:06;5.07;;;3.00;;
19593;SDS011;9944;48.240;16.478;2023-11-22T07:44:11;3.80;;;2.50;;
19593;SDS011;9944;48.240;16.478;2023-11-22T07:48:15;3.55;;;2.72;;
19593;SDS011;9944;48.240;16.478;2023-11-22T07:52:19;3.97;;;2.55;;
19593;SDS011;9944;48.240;16.478;2023-11-22T07:56:25;3.45;;;2.53;;
19593;SDS011;9944;48.240;16.478;2023-11-22T08:00:29;4.00;;;2.63;;
19593;SDS011;9944;48.240;16.478;2023-11-22T08:04:32;4.25;;;2.80;;
19593;SDS011;9944;48.240;16.478;2023-11-22T08:08:36;3.33;;;2.53;;
19593;SDS011;9944;48.240;16.478;2023-11-22T08:12:41;4.03;;;2.85;;
19593;SDS011;9944;48.240;16.478;2023-11-22T08:16:46;3.85;;;3.03;;
19593;SDS011;9944;48.240;16.478;2023-11-22T08:20:49;4.93;;;3.42;;
19593;SDS011;9944;48.240;16.478;2023-11-22T08:24:54;4.78;;;3.30;;
19593;SDS011;9944;48.240;16.478;2023-11-22T08:28:59;4.55;;;2.95;;
19593;SDS011;9944;48.240;16.478;2023-11-22T08:33:03;5.80;;;3.53;;
19593;SDS011;9944;48.240;16.478;2023-11-22T08:37:06;5.32;;;3.60;;
19593;SDS011;9944;48.240;16.478;2023-11-22T08:41:11;6.65;;;4.07;;
19593;SDS011;9944;48.240;16.478;2023-11-22T08:45:16;4.57;;;3.40;;
19593;SDS011;9944;48.240;16.478;2023-11-22T08:49:19;5.20;;;3.30;;
19593;SDS011;9944;48.240;16.478;2023-11-22T08:53:22;6.53;;;3.70;;
19593;SDS011;9944;48.240;16.478;2023-11-22T08:57:27;5.50;;;3.55;;
19593;SDS011;9944;48.240;16.478;2023-11-22T09:01:30;5.25;;;3.55;;
19593;SDS011;9944;48.240;16.478;2023-11-22T09:05:33;6.40;;;4.13;;
19593;SDS011;9944;48.240;16.478;2023-11-22T09:09:37;5.80;;;4.10;;
19593;SDS011;9944;48.240;16.478;2023-11-22T09:13:44;6.80;;;4.07;;
19593;SDS011;9944;48.240;16.478;2023-11-22T09:17:47;5.32;;;3.78;;
19593;SDS011;9944;48.240;16.478;2023-11-22T09:21:50;5.43;;;3.90;;
19593;SDS011;9944;48.240;16.478;2023-11-22T09:25:54;7.15;;;4.63;;
19593;SDS011;9944;48.240;16.478;2023-11-22T09:29:58;5.13;;;4.30;;
19593;SDS011;9944;48.240;16.478;2023-11-22T09:34:02;5.68;;;3.95;;
19593;SDS011;9944;48.240;16.478;2023-11-22T09:38:05;6.60;;;4.15;;
19593;SDS011;9944;48.240;16.478;2023-11-22T09:42:12;6.00;;;4.07;;
19593;SDS011;9944;48.240;16.478;2023-11-22T09:46:16;6.93;;;4.45;;
19593;SDS011;9944;48.240;16.478;2023-11-22T09:50:23;6.47;;;4.63;;
19593;SDS011;9944;48.240;16.478;2023-11-22T09:54:35;5.35;;;3.90;;
19593;SDS011;9944;48.240;16.478;2023-11-22T09:58:41;7.53;;;4.40;;
19593;SDS011;9944;48.240;16.478;2023-11-22T10:02:47;7.43;;;4.20;;
19593;SDS011;9944;48.240;16.478;2023-11-22T10:06:51;6.07;;;4.18;;
19593;SDS011;9944;48.240;16.478;2023-11-22T10:10:54;7.32;;;4.28;;
19593;SDS011;9944;48.240;16.478;2023-11-22T10:15:09;5.65;;;4.07;;
19593;SDS011;9944;48.240;16.478;2023-11-22T10:19:15;6.68;;;4.13;;
19593;SDS011;9944;48.240;16.478;2023-11-22T10:23:21;8.23;;;4.40;;
19593;SDS011;9944;48.240;16.478;2023-11-22T10:27:30;6.43;;;4.43;;
19593;SDS011;9944;48.240;16.478;2023-11-22T10:31:33;6.20;;;4.22;;
19593;SDS011;9944;48.240;16.478;2023-11-22T10:35:38;5.40;;;3.95;;
19593;SDS011;9944;48.240;16.478;2023-11-22T10:39:41;7.75;;;4.80;;
19593;SDS011;9944;48.240;16.478;2023-11-22T10:43:44;6.47;;;4.25;;
19593;SDS011;9944;48.240;16.478;2023-11-22T10:47:48;5.85;;;4.35;;
19593;SDS011;9944;48.240;16.478;2023-11-22T10:51:56;6.82;;;4.88;;
19593;SDS011;9944;48.240;16.478;2023-11-22T10:56:05;6.85;;;4.88;;
19593;SDS011;9944;48.240;16.478;2023-11-22T11:00:14;5.65;;;4.60;;
19593;SDS011;9944;48.240;16.478;2023-11-22T11:04:19;6.20;;;4.55;;
19593;SDS011;9944;48.240;16.478;2023-11-22T11:08:28;7.90;;;5.00;;
19593;SDS011;9944;48.240;16.478;2023-11-22T11:12:32;6.75;;;4.90;;
19593;SDS011;9944;48.240;16.478;2023-11-22T11:16:36;7.00;;;5.25;;
19593;SDS011;9944;48.240;16.478;2023-11-22T11:20:48;6.15;;;4.88;;
19593;SDS011;9944;48.240;16.478;2023-11-22T11:24:59;7.30;;;5.45;;
19593;SDS011;9944;48.240;16.478;2023-11-22T11:29:04;7.93;;;6.10;;
19593;SDS011;9944;48.240;16.478;2023-11-22T11:33:09;7.90;;;5.68;;
19593;SDS011;9944;48.240;16.478;2023-11-22T11:37:14;8.80;;;5.65;;
19593;SDS011;9944;48.240;16.478;2023-11-22T11:41:18;7.40;;;5.63;;
19593;SDS011;9944;48.240;16.478;2023-11-22T11:45:27;8.95;;;5.88;;
19593;SDS011;9944;48.240;16.478;2023-11-22T11:49:31;8.65;;;5.88;;
19593;SDS011;9944;48.240;16.478;2023-11-22T11:53:34;9.93;;;6.45;;
19593;SDS011;9944;48.240;16.478;2023-11-22T11:57:39;8.68;;;6.32;;
19593;SDS011;9944;48.240;16.478;2023-11-22T12:01:43;9.65;;;6.50;;
19593;SDS011;9944;48.240;16.478;2023-11-22T12:05:46;8.93;;;5.97;;
19593;SDS011;9944;48.240;16.478;2023-11-22T12:09:51;9.98;;;6.50;;
19593;SDS011;9944;48.240;16.478;2023-11-22T12:13:56;9.85;;;6.22;;
19593;SDS011;9944;48.240;16.478;2023-11-22T12:18:01;13.27;;;6.68;;
19593;SDS011;9944;48.240;16.478;2023-11-22T12:22:04;9.32;;;6.35;;
19593;SDS011;9944;48.240;16.478;2023-11-22T12:26:09;11.00;;;6.68;;
19593;SDS011;9944;48.240;16.478;2023-11-22T12:30:32;10.10;;;7.25;;
19593;SDS011;9944;48.240;16.478;2023-11-22T12:34:36;11.43;;;7.45;;
19593;SDS011;9944;48.240;16.478;2023-11-22T12:38:41;11.13;;;7.85;;
19593;SDS011;9944;48.240;16.478;2023-11-22T12:42:46;14.88;;;7.95;;
19593;SDS011;9944;48.240;16.478;2023-11-22T12:46:52;12.52;;;6.93;;
19593;SDS011;9944;48.240;16.478;2023-11-22T12:51:00;10.80;;;6.68;;
19593;SDS011;9944;48.240;16.478;2023-11-22T12:55:03;10.40;;;6.15;;
19593;SDS011;9944;48.240;16.478;2023-11-22T12:59:09;9.52;;;5.80;;
19593;SDS011;9944;48.240;16.478;2023-11-22T13:03:15;9.13;;;5.75;;
19593;SDS011;9944;48.240;16.478;2023-11-22T13:07:19;10.82;;;6.40;;
19593;SDS011;9944;48.240;16.478;2023-11-22T13:11:22;8.00;;;5.53;;
19593;SDS011;9944;48.240;16.478;2023-11-22T13:15:26;8.27;;;5.40;;
19593;SDS011;9944;48.240;16.478;2023-11-22T13:19:30;9.68;;;5.85;;
19593;SDS011;9944;48.240;16.478;2023-11-22T13:23:34;9.65;;;6.25;;
19593;SDS011;9944;48.240;16.478;2023-11-22T13:27:37;8.75;;;6.25;;
19593;SDS011;9944;48.240;16.478;2023-11-22T13:31:40;10.63;;;7.28;;
19593;SDS011;9944;48.240;16.478;2023-11-22T13:35:44;8.63;;;6.13;;
19593;SDS011;9944;48.240;16.478;2023-11-22T13:39:49;9.18;;;5.97;;
19593;SDS011;9944;48.240;16.478;2023-11-22T13:43:53;10.00;;;6.07;;
19593;SDS011;9944;48.240;16.478;2023-11-22T13:47:57;9.10;;;6.10;;
19593;SDS011;9944;48.240;16.478;2023-11-22T13:52:06;8.65;;;6.45;;
19593;SDS011;9944;48.240;16.478;2023-11-22T13:56:10;10.93;;;6.20;;
19593;SDS011;9944;48.240;16.478;2023-11-22T14:00:16;8.23;;;5.63;;
19593;SDS011;9944;48.240;16.478;2023-11-22T14:04:21;14.13;;;6.20;;
19593;SDS011;9944;48.240;16.478;2023-11-22T14:08:26;8.80;;;6.32;;
19593;SDS011;9944;48.240;16.478;2023-11-22T14:12:29;8.50;;;5.80;;
19593;SDS011;9944;48.240;16.478;2023-11-22T14:16:33;8.52;;;5.97;;
19593;SDS011;9944;48.240;16.478;2023-11-22T14:20:37;9.88;;;6.05;;
19593;SDS011;9944;48.240;16.478;2023-11-22T14:24:41;8.63;;;6.18;;
19593;SDS011;9944;48.240;16.478;2023-11-22T14:28:46;8.50;;;6.03;;
19593;SDS011;9944;48.240;16.478;2023-11-22T14:32:51;10.82;;;6.75;;
19593;SDS011;9944;48.240;16.478;2023-11-22T14:36:55;7.90;;;5.90;;
19593;SDS011;9944;48.240;16.478;2023-11-22T14:41:00;8.70;;;5.45;;
19593;SDS011;9944;48.240;16.478;2023-11-22T14:45:05;9.95;;;6.05;;
19593;SDS011;9944;48.240;16.478;2023-11-22T14:49:09;8.63;;;5.80;;
19593;SDS011;9944;48.240;16.478;2023-11-22T14:53:13;9.43;;;6.38;;
19593;SDS011;9944;48.240;16.478;2023-11-22T14:57:18;8.48;;;5.47;;
19593;SDS011;9944;48.240;16.478;2023-11-22T15:01:21;9.60;;;6.30;;
19593;SDS011;9944;48.240;16.478;2023-11-22T15:05:26;11.68;;;7.07;;
19593;SDS011;9944;48.240;16.478;2023-11-22T15:09:30;9.52;;;5.80;;
19593;SDS011;9944;48.240;16.478;2023-11-22T15:13:36;10.07;;;6.45;;
19593;SDS011;9944;48.240;16.478;2023-11-22T15:17:39;9.65;;;5.93;;
19593;SDS011;9944;48.240;16.478;2023-11-22T15:21:42;11.60;;;6.90;;
19593;SDS011;9944;48.240;16.478;2023-11-22T15:25:46;9.57;;;6.10;;
19593;SDS011;9944;48.240;16.478;2023-11-22T15:29:50;9.73;;;6.25;;
19593;SDS011;9944;48.240;16.478;2023-11-22T15:33:54;10.90;;;6.72;;
19593;SDS011;9944;48.240;16.478;2023-11-22T15:37:57;10.73;;;7.13;;
19593;SDS011;9944;48.240;16.478;2023-11-22T15:42:01;9.50;;;6.88;;
19593;SDS011;9944;48.240;16.478;2023-11-22T15:46:08;11.77;;;6.88;;
19593;SDS011;9944;48.240;16.478;2023-11-22T15:50:14;12.77;;;7.13;;
19593;SDS011;9944;48.240;16.478;2023-11-22T15:54:18;12.15;;;7.65;;
19593;SDS011;9944;48.240;16.478;2023-11-22T15:58:21;11.32;;;6.93;;
19593;SDS011;9944;48.240;16.478;2023-11-22T16:02:26;11.13;;;7.13;;
19593;SDS011;9944;48.240;16.478;2023-11-22T16:06:30;11.88;;;7.40;;
19593;SDS011;9944;48.240;16.478;2023-11-22T16:10:34;11.90;;;7.50;;
19593;SDS011;9944;48.240;16.478;2023-11-22T16:14:38;11.07;;;6.70;;
19593;SDS011;9944;48.240;16.478;2023-11-22T16:18:42;12.20;;;6.95;;
19593;SDS011;9944;48.240;16.478;2023-11-22T16:22:46;13.02;;;7.75;;
19593;SDS011;9944;48.240;16.478;2023-11-22T16:26:51;13.82;;;8.55;;
19593;SDS011;9944;48.240;16.478;2023-11-22T16:30:55;14.50;;;8.45;;
19593;SDS011;9944;48.240;16.478;2023-11-22T16:34:59;15.35;;;8.55;;
19593;SDS011;9944;48.240;16.478;2023-11-22T16:39:03;11.63;;;7.50;;
19593;SDS011;9944;48.240;16.478;2023-11-22T16:43:25;14.93;;;7.63;;
19593;SDS011;9944;48.240;16.478;2023-11-22T16:47:28;15.13;;;7.88;;
19593;SDS011;9944;48.240;16.478;2023-11-22T16:51:33;13.80;;;8.13;;
19593;SDS011;9944;48.240;16.478;2023-11-22T16:55:36;15.88;;;8.02;;
19593;SDS011;9944;48.240;16.478;2023-11-22T16:59:39;16.45;;;7.90;;
19593;SDS011;9944;48.240;16.478;2023-11-22T17:03:43;14.65;;;7.50;;
19593;SDS011;9944;48.240;16.478;2023-11-22T17:07:48;13.27;;;7.15;;
19593;SDS011;9944;48.240;16.478;2023-11-22T17:11:52;13.30;;;7.22;;
19593;SDS011;9944;48.240;16.478;2023-11-22T17:15:55;10.85;;;7.18;;
19593;SDS011;9944;48.240;16.478;2023-11-22T17:19:58;11.75;;;7.35;;
19593;SDS011;9944;48.240;16.478;2023-11-22T17:24:03;12.80;;;7.22;;
19593;SDS011;9944;48.240;16.478;2023-11-22T17:28:09;11.60;;;6.68;;
19593;SDS011;9944;48.240;16.478;2023-11-22T17:32:12;11.27;;;7.18;;
19593;SDS011;9944;48.240;16.478;2023-11-22T17:36:16;13.63;;;8.35;;
19593;SDS011;9944;48.240;16.478;2023-11-22T17:40:21;11.15;;;7.25;;
19593;SDS011;9944;48.240;16.478;2023-11-22T17:44:25;11.63;;;7.32;;
19593;SDS011;9944;48.240;16.478;2023-11-22T17:48:28;13.30;;;7.95;;
19593;SDS011;9944;48.240;16.478;2023-11-22T17:52:32;12.95;;;7.20;;
19593;SDS011;9944;48.240;16.478;2023-11-22T17:56:36;12.80;;;7.65;;
19593;SDS011;9944;48.240;16.478;2023-11-22T18:00:40;13.63;;;7.72;;
19593;SDS011;9944;48.240;16.478;2023-11-22T18:04:43;12.50;;;7.70;;
19593;SDS011;9944;48.240;16.478;2023-11-22T18:08:46;13.05;;;7.75;;
19593;SDS011;9944;48.240;16.478;2023-11-22T18:12:51;12.00;;;8.00;;
19593;SDS011;9944;48.240;16.478;2023-11-22T18:16:55;14.68;;;8.02;;
19593;SDS011;9944;48.240;16.478;2023-11-22T18:20:58;12.88;;;7.82;;
19593;SDS011;9944;48.240;16.478;2023-11-22T18:25:01;15.93;;;8.32;;
19593;SDS011;9944;48.240;16.478;2023-11-22T18:29:05;16.30;;;9.30;;
19593;SDS011;9944;48.240;16.478;2023-11-22T18:33:09;13.38;;;7.55;;
19593;SDS011;9944;48.240;16.478;2023-11-22T18:37:14;15.18;;;8.77;;
19593;SDS011;9944;48.240;16.478;2023-11-22T18:41:18;15.32;;;8.50;;
19593;SDS011;9944;48.240;16.478;2023-11-22T18:45:22;12.57;;;7.70;;
19593;SDS011;9944;48.240;16.478;2023-11-22T18:49:27;15.15;;;8.73;;
19593;SDS011;9944;48.240;16.478;2023-11-22T18:53:30;12.63;;;8.00;;
19593;SDS011;9944;48.240;16.478;2023-11-22T18:57:34;12.35;;;7.78;;
19593;SDS011;9944;48.240;16.478;2023-11-22T19:01:38;16.08;;;8.40;;
19593;SDS011;9944;48.240;16.478;2023-11-22T19:05:43;16.58;;;9.27;;
19593;SDS011;9944;48.240;16.478;2023-11-22T19:09:46;14.10;;;8.30;;
19593;SDS011;9944;48.240;16.478;2023-11-22T19:13:50;15.98;;;8.52;;
19593;SDS011;9944;48.240;16.478;2023-11-22T19:17:57;11.82;;;8.05;;
19593;SDS011;9944;48.240;16.478;2023-11-22T19:22:00;14.68;;;8.18;;
19593;SDS011;9944;48.240;16.478;2023-11-22T19:26:03;16.27;;;8.40;;
19593;SDS011;9944;48.240;16.478;2023-11-22T19:30:07;16.13;;;8.50;;
19593;SDS011;9944;48.240;16.478;2023-11-22T19:34:12;15.38;;;8.93;;
19593;SDS011;9944;48.240;16.478;2023-11-22T19:38:16;14.23;;;8.57;;
19593;SDS011;9944;48.240;16.478;2023-11-22T19:42:21;15.50;;;8.93;;
19593;SDS011;9944;48.240;16.478;2023-11-22T19:46:25;16.35;;;8.68;;
19593;SDS011;9944;48.240;16.478;2023-11-22T19:50:30;16.65;;;8.50;;
19593;SDS011;9944;48.240;16.478;2023-11-22T19:54:34;15.45;;;9.20;;
19593;SDS011;9944;48.240;16.478;2023-11-22T19:58:38;14.68;;;8.02;;
19593;SDS011;9944;48.240;16.478;2023-11-22T20:02:41;15.30;;;8.68;;
19593;SDS011;9944;48.240;16.478;2023-11-22T20:06:47;15.90;;;9.25;;
19593;SDS011;9944;48.240;16.478;2023-11-22T20:10:50;13.60;;;8.05;;
19593;SDS011;9944;48.240;16.478;2023-11-22T20:14:53;16.92;;;9.38;;
19593;SDS011;9944;48.240;16.478;2023-11-22T20:18:57;17.40;;;9.05;;
19593;SDS011;9944;48.240;16.478;2023-11-22T20:23:01;15.38;;;8.55;;
19593;SDS011;9944;48.240;16.478;2023-11-22T20:27:05;13.88;;;8.77;;
19593;SDS011;9944;48.240;16.478;2023-11-22T20:31:08;15.27;;;8.30;;
19593;SDS011;9944;48.240;16.478;2023-11-22T20:35:12;15.95;;;7.95;;
19593;SDS011;9944;48.240;16.478;2023-11-22T20:39:16;14.50;;;8.90;;
19593;SDS011;9944;48.240;16.478;2023-11-22T20:43:21;14.68;;;8.48;;
19593;SDS011;9944;48.240;16.478;2023-11-22T20:47:24;16.45;;;9.10;;
19593;SDS011;9944;48.240;16.478;2023-11-22T20:51:28;16.95;;;8.77;;
19593;SDS011;9944;48.240;16.478;2023-11-22T20:55:33;16.80;;;9.50;;
19593;SDS011;9944;48.240;16.478;2023-11-22T20:59:36;15.38;;;8.80;;
19593;SDS011;9944;48.240;16.478;2023-11-22T21:03:39;15.80;;;9.07;;
19593;SDS011;9944;48.240;16.478;2023-11-22T21:07:43;14.35;;;8.63;;
19593;SDS011;9944;48.240;16.478;2023-11-22T21:11:47;15.80;;;9.60;;
19593;SDS011;9944;48.240;16.478;2023-11-22T21:15:51;16.30;;;9.48;;
19593;SDS011;9944;48.240;16.478;2023-11-22T21:19:54;19.83;;;9.63;;
19593;SDS011;9944;48.240;16.478;2023-11-22T21:23:57;17.17;;;9.80;;
19593;SDS011;9944;48.240;16.478;2023-11-22T21:28:01;18.30;;;9.02;;
19593;SDS011;9944;48.240;16.478;2023-11-22T21:32:05;15.30;;;9.23;;
19593;SDS011;9944;48.240;16.478;2023-11-22T21:36:10;14.60;;;8.73;;
19593;SDS011;9944;48.240;16.478;2023-11-22T21:40:13;15.85;;;8.70;;
19593;SDS011;9944;48.240;16.478;2023-11-22T21:44:19;19.60;;;10.18;;
19593;SDS011;9944;48.240;16.478;2023-11-22T21:48:22;14.55;;;9.02;;
19593;SDS011;9944;48.240;16.478;2023-11-22T21:52:26;15.95;;;9.40;;
19593;SDS011;9944;48.240;16.478;2023-11-22T21:56:29;14.98;;;8.65;;
19593;SDS011;9944;48.240;16.478;2023-11-22T22:00:36;16.75;;;9.30;;
19593;SDS011;9944;48.240;16.478;2023-11-22T22:04:40;16.95;;;10.00;;
19593;SDS011;9944;48.240;16.478;2023-11-22T22:08:43;16.83;;;9.55;;
19593;SDS011;9944;48.240;16.478;2023-11-22T22:12:49;17.17;;;9.68;;
19593;SDS011;9944;48.240;16.478;2023-11-22T22:16:54;17.42;;;10.05;;
19593;SDS011;9944;48.240;16.478;2023-11-22T22:20:57;16.75;;;9.00;;
19593;SDS011;9944;48.240;16.478;2023-11-22T22:25:02;16.92;;;9.73;;
19593;SDS011;9944;48.240;16.478;2023-11-22T22:29:06;15.95;;;9.93;;
19593;SDS011;9944;48.240;16.478;2023-11-22T22:33:11;17.33;;;10.15;;
19593;SDS011;9944;48.240;16.478;2023-11-22T22:37:15;18.33;;;10.20;;
19593;SDS011;9944;48.240;16.478;2023-11-22T22:41:18;18.85;;;9.52;;
19593;SDS011;9944;48.240;16.478;2023-11-22T22:45:22;18.15;;;10.23;;
19593;SDS011;9944;48.240;16.478;2023-11-22T22:49:26;17.90;;;10.52;;
19593;SDS011;9944;48.240;16.478;2023-11-22T22:53:30;19.08;;;10.38;;
19593;SDS011;9944;48.240;16.478;2023-11-22T22:57:33;19.67;;;10.27;;
19593;SDS011;9944;48.240;16.478;2023-11-22T23:01:38;16.77;;;9.30;;
19593;SDS011;9944;48.240;16.478;2023-11-22T23:05:44;17.58;;;10.05;;
19593;SDS011;9944;48.240;16.478;2023-11-22T23:09:47;21.17;;;10.13;;
19593;SDS011;9944;48.240;16.478;2023-11-22T23:13:50;18.65;;;9.90;;
19593;SDS011;9944;48.240;16.478;2023-11-22T23:17:54;20.02;;;9.82;;
19593;SDS011;9944;48.240;16.478;2023-11-22T23:21:59;19.33;;;10.45;;
19593;SDS011;9944;48.240;16.478;2023-11-22T23:26:06;17.52;;;9.70;;
19593;SDS011;9944;48.240;16.478;2023-11-22T23:30:09;20.08;;;10.70;;
19593;SDS011;9944;48.240;16.478;2023-11-22T23:34:13;18.38;;;10.30;;
19593;SDS011;9944;48.240;16.478;2023-11-22T23:38:17;18.75;;;10.60;;
19593;SDS011;9944;48.240;16.478;2023-11-22T23:42:23;20.55;;;10.15;;
19593;SDS011;9944;48.240;16.478;2023-11-22T23:46:26;19.02;;;10.48;;
19593;SDS011;9944;48.240;16.478;2023-11-22T23:50:30;17.10;;;9.45;;
19593;SDS011;9944;48.240;16.478;2023-11-22T23:54:36;18.42;;;10.27;;
19593;SDS011;9944;48.240;16.478;2023-11-22T23:58:39;17.33;;;9.88;;
